LEIB Airport Information

Runway Information
Runway 06 Length 9186 ft width 148 ft
Elevation 13 ft Threshold 0 ft Heading 62
Runway 24 Length 9186 ft Width 148 ft
Elevation 16 ft Threshold 0 ft Heading 242
Airport Frequencies
Type APP Name PALMA APP Frequency 118.125 MHZ
Type APP Name APP Frequency 119.8 MHZ
Type ATIS Name ATIS Frequency 117.8 MHZ
Type GND Name GND Frequency 121.8 MHZ
Type TWR Name TWR Frequency 118.5 MHZ
Airport Navaids
Type VOR-DME Name Ibiza Frequency 117800 KHZ
Type NDB Name Ibiza Frequency 394 KHZ
Airport Weather Information & NOTAM
LEIB 251930Z AUTO 06003KT CAVOK 22/11 Q1024